createdAt,value
2018-05-31T00:01:06.949Z,21.00
2018-05-31T00:03:34.915Z,21.00
2018-05-31T00:06:02.478Z,20.90
2018-05-31T00:08:30.256Z,20.80
2018-05-31T00:10:57.966Z,20.70
2018-05-31T00:13:26.316Z,20.70
2018-05-31T00:15:54.962Z,20.60
2018-05-31T00:18:22.593Z,20.60
2018-05-31T00:20:50.227Z,20.60
2018-05-31T00:23:19.157Z,20.40
2018-05-31T00:25:46.779Z,20.40
2018-05-31T00:28:15.141Z,20.40
2018-05-31T00:30:42.734Z,20.30
2018-05-31T00:33:11.257Z,20.30
2018-05-31T00:35:38.863Z,20.20
2018-05-31T00:38:07.268Z,20.20
2018-05-31T00:40:34.957Z,20.10
2018-05-31T00:43:02.569Z,20.10
2018-05-31T00:45:30.947Z,20.00
2018-05-31T00:47:59.290Z,19.80
2018-05-31T00:50:27.159Z,19.90
2018-05-31T00:52:54.798Z,19.80
2018-05-31T00:55:34.442Z,19.80
2018-05-31T00:58:02.068Z,19.70
2018-05-31T01:00:29.697Z,19.60
2018-05-31T01:02:57.322Z,19.50
2018-05-31T01:05:25.732Z,19.50
2018-05-31T01:07:53.374Z,19.50
2018-05-31T01:10:20.974Z,19.50
2018-05-31T01:12:49.370Z,19.40
2018-05-31T01:15:17.145Z,19.40
2018-05-31T01:17:44.765Z,19.40
2018-05-31T01:20:14.445Z,19.30
2018-05-31T01:22:42.413Z,19.30
2018-05-31T01:25:10.134Z,19.30
2018-05-31T01:27:37.823Z,19.20
2018-05-31T01:30:05.509Z,19.30
2018-05-31T01:32:33.073Z,19.30
2018-05-31T01:35:00.688Z,19.30
2018-05-31T01:37:29.196Z,19.20
2018-05-31T01:39:57.058Z,19.20
2018-05-31T01:42:25.573Z,19.20
2018-05-31T01:44:53.167Z,19.10
2018-05-31T01:47:20.781Z,19.20
2018-05-31T01:49:48.535Z,19.20
2018-05-31T01:52:16.113Z,19.10
2018-05-31T01:54:43.745Z,19.10
2018-05-31T01:57:11.444Z,19.10
2018-05-31T01:59:39.105Z,19.10
2018-05-31T02:02:06.850Z,19.10
2018-05-31T02:04:35.646Z,19.00
2018-05-31T02:07:03.253Z,19.00
2018-05-31T02:09:30.859Z,19.00
2018-05-31T02:11:58.519Z,18.90
2018-05-31T02:14:26.077Z,18.90
2018-05-31T02:16:53.683Z,18.90
2018-05-31T02:19:21.469Z,18.90
2018-05-31T02:21:49.070Z,18.90
2018-05-31T02:24:16.650Z,18.80
2018-05-31T02:26:44.568Z,18.80
2018-05-31T02:29:12.154Z,18.80
2018-05-31T02:31:39.740Z,18.80
2018-05-31T02:34:08.145Z,18.70
2018-05-31T02:36:35.937Z,18.70
2018-05-31T02:39:03.574Z,18.80
2018-05-31T02:41:31.158Z,18.70
2018-05-31T02:43:58.793Z,18.70
2018-05-31T02:46:26.412Z,18.60
2018-05-31T02:48:54.351Z,18.60
2018-05-31T02:51:21.940Z,18.60
2018-05-31T02:53:49.546Z,18.60
2018-05-31T02:56:17.165Z,18.60
2018-05-31T02:58:45.243Z,18.60
2018-05-31T03:01:13.711Z,18.50
2018-05-31T03:03:42.129Z,18.50
2018-05-31T03:06:10.253Z,18.50
2018-05-31T03:08:37.994Z,18.40
2018-05-31T03:11:06.371Z,18.40
2018-05-31T03:13:34.162Z,18.40
2018-05-31T03:16:01.789Z,18.40
2018-05-31T03:18:29.391Z,18.40
2018-05-31T03:20:57.892Z,18.30
2018-05-31T03:23:25.494Z,18.30
2018-05-31T03:25:54.892Z,18.40
2018-05-31T03:28:22.562Z,18.40
2018-05-31T03:30:50.139Z,18.40
2018-05-31T03:33:17.782Z,18.40
2018-05-31T03:35:45.395Z,18.40
2018-05-31T03:38:13.930Z,18.50
2018-05-31T03:40:42.299Z,18.50
2018-05-31T03:43:09.926Z,18.50
2018-05-31T03:45:37.506Z,18.40
2018-05-31T03:48:05.129Z,18.40
2018-05-31T03:50:33.556Z,18.50
2018-05-31T03:53:01.139Z,18.50
2018-05-31T03:55:29.094Z,18.50
2018-05-31T03:57:56.855Z,18.50
2018-05-31T04:00:24.516Z,18.60
2018-05-31T04:02:52.137Z,18.60
2018-05-31T04:05:19.748Z,18.60
2018-05-31T04:07:47.344Z,18.60
2018-05-31T04:10:15.738Z,18.70
2018-05-31T04:12:43.541Z,18.70
2018-05-31T04:15:11.202Z,18.70
2018-05-31T04:17:38.798Z,18.70
2018-05-31T04:20:06.380Z,18.80
2018-05-31T04:22:34.831Z,18.90
2018-05-31T04:25:02.424Z,18.90
2018-05-31T04:27:30.049Z,18.90
2018-05-31T04:29:58.439Z,19.00
2018-05-31T04:32:27.155Z,19.10
2018-05-31T04:34:54.946Z,19.00
2018-05-31T04:37:22.551Z,19.10
2018-05-31T04:39:50.913Z,19.20
2018-05-31T04:42:18.522Z,19.20
2018-05-31T04:44:46.233Z,19.30
2018-05-31T04:47:14.282Z,19.30
2018-05-31T04:49:42.068Z,19.40
2018-05-31T04:52:10.259Z,19.50
2018-05-31T04:54:39.113Z,19.70
2018-05-31T04:57:06.989Z,19.70
2018-05-31T04:59:34.579Z,19.90
2018-05-31T05:02:03.233Z,20.10
2018-05-31T05:04:31.104Z,20.00
2018-05-31T05:06:58.725Z,20.20
2018-05-31T05:09:26.338Z,20.40
2018-05-31T05:11:53.963Z,20.60
2018-05-31T05:14:22.659Z,20.90
2018-05-31T05:16:50.250Z,21.10
2018-05-31T05:19:19.361Z,21.40
2018-05-31T05:21:47.903Z,21.60
2018-05-31T05:24:16.183Z,21.60
2018-05-31T05:26:43.906Z,21.80
2018-05-31T05:29:11.516Z,22.00
2018-05-31T05:31:39.926Z,22.30
2018-05-31T05:34:08.698Z,22.60
2018-05-31T05:36:36.837Z,22.60
2018-05-31T05:39:06.022Z,22.80
2018-05-31T05:41:33.617Z,22.70
2018-05-31T05:44:01.761Z,22.80
2018-05-31T05:46:29.371Z,22.80
2018-05-31T05:48:59.119Z,23.00
2018-05-31T05:51:26.719Z,23.00
2018-05-31T05:53:54.278Z,23.00
2018-05-31T05:56:21.863Z,23.00
2018-05-31T05:58:49.474Z,23.10
2018-05-31T06:01:17.041Z,23.20
2018-05-31T06:03:45.301Z,23.30
2018-05-31T06:06:12.979Z,23.30
2018-05-31T06:08:40.567Z,23.40
2018-05-31T06:11:09.022Z,23.80
2018-05-31T06:13:36.606Z,23.80
2018-05-31T06:16:05.151Z,24.30
2018-05-31T06:18:32.767Z,24.20
2018-05-31T06:21:00.472Z,24.50
2018-05-31T06:23:28.027Z,24.80
2018-05-31T06:25:55.712Z,25.00
2018-05-31T06:28:23.302Z,25.30
2018-05-31T06:30:51.639Z,25.50
2018-05-31T06:33:19.244Z,25.50
2018-05-31T06:35:47.582Z,25.70
2018-05-31T06:38:15.157Z,25.70
2018-05-31T06:40:42.735Z,25.70
2018-05-31T06:43:10.312Z,26.00
2018-05-31T06:45:37.907Z,26.30
2018-05-31T06:48:06.028Z,26.70
2018-05-31T06:50:34.427Z,27.10
2018-05-31T06:53:03.529Z,27.20
2018-05-31T06:55:31.246Z,27.30
2018-05-31T06:57:58.882Z,27.30
2018-05-31T07:00:26.415Z,27.20
2018-05-31T07:02:54.008Z,27.20
2018-05-31T07:05:21.672Z,27.50
2018-05-31T07:07:49.218Z,27.70
2018-05-31T07:10:16.785Z,27.80
2018-05-31T07:12:44.463Z,28.20
2018-05-31T07:15:12.035Z,28.30
2018-05-31T07:17:39.734Z,28.50
2018-05-31T07:20:07.326Z,28.70
2018-05-31T07:22:34.918Z,28.90
2018-05-31T07:25:02.746Z,28.80
2018-05-31T07:27:30.328Z,29.10
2018-05-31T07:29:57.908Z,29.20
2018-05-31T07:32:25.485Z,29.40
2018-05-31T07:34:53.802Z,29.80
2018-05-31T07:37:21.407Z,29.70
2018-05-31T07:39:48.982Z,30.00
2018-05-31T07:42:17.306Z,30.10
2018-05-31T07:44:44.894Z,30.10
2018-05-31T07:47:13.206Z,30.40
2018-05-31T07:49:40.776Z,30.40
2018-05-31T07:52:08.327Z,30.70
2018-05-31T07:54:36.023Z,30.80
2018-05-31T07:57:03.615Z,30.70
2018-05-31T07:59:31.194Z,31.10
2018-05-31T08:01:59.517Z,31.30
2018-05-31T08:04:27.113Z,31.30
2018-05-31T08:06:54.719Z,31.40
2018-05-31T08:09:22.359Z,31.60
2018-05-31T08:11:50.683Z,31.70
2018-05-31T08:14:18.259Z,31.70
2018-05-31T08:16:45.847Z,31.80
2018-05-31T08:19:14.162Z,32.20
2018-05-31T08:21:41.761Z,32.10
2018-05-31T08:24:09.319Z,32.10
2018-05-31T08:26:37.142Z,32.00
2018-05-31T08:29:04.816Z,32.30
2018-05-31T08:31:32.429Z,32.50
2018-05-31T08:33:59.933Z,32.50
2018-05-31T08:36:27.517Z,32.60
2018-05-31T08:38:55.170Z,32.80
2018-05-31T08:41:22.709Z,32.90
2018-05-31T08:43:50.866Z,33.00
2018-05-31T08:46:18.418Z,33.30
2018-05-31T08:48:45.985Z,33.40
2018-05-31T08:51:13.599Z,33.60
2018-05-31T08:53:41.275Z,33.60
2018-05-31T08:56:09.659Z,33.10
2018-05-31T08:58:38.146Z,33.30
2018-05-31T09:01:06.499Z,33.20
2018-05-31T09:03:34.854Z,33.00
2018-05-31T09:06:03.192Z,33.00
2018-05-31T09:08:30.925Z,33.40
2018-05-31T09:10:59.300Z,33.40
2018-05-31T09:13:27.643Z,33.60
2018-05-31T09:15:55.236Z,33.60
2018-05-31T09:18:24.377Z,33.40
2018-05-31T09:20:52.000Z,33.40
2018-05-31T09:23:20.333Z,33.60
2018-05-31T09:25:48.050Z,33.60
2018-05-31T09:28:16.720Z,33.50
2018-05-31T09:30:45.053Z,33.50
2018-05-31T09:33:12.601Z,33.40
2018-05-31T09:35:40.193Z,33.50
2018-05-31T09:38:07.860Z,33.80
2018-05-31T09:40:35.504Z,34.00
2018-05-31T09:43:03.078Z,33.80
2018-05-31T09:45:30.703Z,33.80
2018-05-31T09:47:58.394Z,34.00
2018-05-31T09:50:25.963Z,34.20
2018-05-31T09:52:53.592Z,34.10
2018-05-31T09:55:21.203Z,34.40
2018-05-31T09:57:49.568Z,34.80
2018-05-31T10:00:17.125Z,34.70
2018-05-31T10:02:44.725Z,34.60
2018-05-31T10:05:12.309Z,34.30
2018-05-31T10:07:39.921Z,34.20
2018-05-31T10:10:08.235Z,34.10
2018-05-31T10:12:35.838Z,34.10
2018-05-31T10:15:03.560Z,33.80
2018-05-31T10:17:31.147Z,34.20
2018-05-31T10:19:58.721Z,34.50
2018-05-31T10:22:27.075Z,34.40
2018-05-31T10:24:54.813Z,34.40
2018-05-31T10:27:22.404Z,34.20
2018-05-31T10:29:49.964Z,34.30
2018-05-31T10:32:17.516Z,34.40
2018-05-31T10:34:45.144Z,34.40
2018-05-31T10:37:12.710Z,34.00
2018-05-31T10:39:40.256Z,34.20
2018-05-31T10:42:07.845Z,34.40
2018-05-31T10:44:35.516Z,34.60
2018-05-31T10:47:03.085Z,35.10
2018-05-31T10:49:30.727Z,35.20
2018-05-31T10:51:58.308Z,35.40
2018-05-31T10:54:25.911Z,35.50
2018-05-31T10:56:53.488Z,35.60
2018-05-31T10:59:21.300Z,35.60
2018-05-31T11:01:48.871Z,35.50
2018-05-31T11:04:17.185Z,35.90
2018-05-31T11:06:44.735Z,35.90
2018-05-31T11:09:12.325Z,36.00
2018-05-31T11:11:39.895Z,36.10
2018-05-31T11:14:07.455Z,35.80
2018-05-31T11:16:35.839Z,35.70
2018-05-31T11:19:03.688Z,35.70
2018-05-31T11:21:31.940Z,35.60
2018-05-31T11:23:59.529Z,35.50
2018-05-31T11:26:27.075Z,35.60
2018-05-31T11:28:54.654Z,35.50
2018-05-31T11:31:22.288Z,35.60
2018-05-31T11:33:49.914Z,35.60
2018-05-31T11:36:18.257Z,35.80
2018-05-31T11:38:45.887Z,35.70
2018-05-31T11:41:13.511Z,35.60
2018-05-31T11:43:41.834Z,35.10
2018-05-31T11:46:09.396Z,35.10
2018-05-31T11:48:36.993Z,35.10
2018-05-31T11:51:05.332Z,35.10
2018-05-31T11:53:33.299Z,35.10
2018-05-31T11:56:00.893Z,34.80
2018-05-31T11:58:28.720Z,34.80
2018-05-31T12:00:56.293Z,34.80
2018-05-31T12:03:23.909Z,34.80
2018-05-31T12:05:51.462Z,34.80
2018-05-31T12:08:21.575Z,35.30
2018-05-31T12:10:49.147Z,35.30
2018-05-31T12:13:16.722Z,35.50
2018-05-31T12:15:44.320Z,35.00
2018-05-31T12:18:12.166Z,35.00
2018-05-31T12:20:40.784Z,34.90
2018-05-31T12:23:08.344Z,34.30
2018-05-31T12:25:36.215Z,34.40
2018-05-31T12:28:03.793Z,34.40
2018-05-31T12:30:31.341Z,34.20
2018-05-31T12:32:59.862Z,33.70
2018-05-31T12:35:27.427Z,33.60
2018-05-31T12:37:54.975Z,33.50
2018-05-31T12:40:22.549Z,33.40
2018-05-31T12:42:50.147Z,33.30
2018-05-31T12:45:17.698Z,33.10
2018-05-31T12:47:45.331Z,32.70
2018-05-31T12:50:12.887Z,32.40
2018-05-31T12:52:40.453Z,32.30
2018-05-31T12:55:08.029Z,32.30
2018-05-31T12:57:35.589Z,32.30
2018-05-31T13:00:03.188Z,32.20
2018-05-31T13:02:30.749Z,32.40
2018-05-31T13:04:58.307Z,32.40
2018-05-31T13:07:26.004Z,32.40
2018-05-31T13:09:53.556Z,32.50
2018-05-31T13:12:21.096Z,32.60
2018-05-31T13:14:49.256Z,32.50
2018-05-31T13:17:16.953Z,32.50
2018-05-31T13:19:44.683Z,32.60
2018-05-31T13:22:13.005Z,32.60
2018-05-31T13:24:40.616Z,32.60
2018-05-31T13:27:08.173Z,32.40
2018-05-31T13:29:36.497Z,32.30
2018-05-31T13:32:04.115Z,32.30
2018-05-31T13:34:32.439Z,32.20
2018-05-31T13:37:00.022Z,32.20
2018-05-31T13:39:32.686Z,32.10
2018-05-31T13:42:04.719Z,32.10
2018-05-31T13:44:32.343Z,31.90
2018-05-31T13:47:03.434Z,32.10
2018-05-31T13:49:35.922Z,32.10
2018-05-31T13:52:04.706Z,32.10
2018-05-31T13:54:34.764Z,32.20
2018-05-31T13:57:05.717Z,32.50
2018-05-31T13:59:34.578Z,32.40
2018-05-31T14:02:03.288Z,32.40
2018-05-31T14:04:33.693Z,32.50
2018-05-31T14:07:02.455Z,32.20
2018-05-31T14:09:35.251Z,32.20
2018-05-31T14:12:03.566Z,32.10
2018-05-31T14:14:31.137Z,32.10
2018-05-31T14:17:01.939Z,32.10
2018-05-31T14:19:31.476Z,32.10
2018-05-31T14:22:00.564Z,32.10
2018-05-31T14:24:31.167Z,31.90
2018-05-31T14:27:03.856Z,31.90
2018-05-31T14:29:34.063Z,32.00
2018-05-31T14:32:06.026Z,32.00
2018-05-31T14:34:36.772Z,31.90
2018-05-31T14:37:05.546Z,32.00
2018-05-31T14:39:36.935Z,32.00
2018-05-31T14:42:04.612Z,32.00
2018-05-31T14:44:32.378Z,31.90
2018-05-31T14:47:00.098Z,31.80
2018-05-31T14:49:27.788Z,31.90
2018-05-31T14:51:55.574Z,31.80
2018-05-31T14:54:23.188Z,31.90
2018-05-31T14:56:51.205Z,32.00
2018-05-31T14:59:19.054Z,32.00
2018-05-31T15:01:46.652Z,32.00
2018-05-31T15:04:14.232Z,32.00
2018-05-31T15:06:42.557Z,31.70
2018-05-31T15:09:10.155Z,31.70
2018-05-31T15:11:37.794Z,31.60
2018-05-31T15:14:05.759Z,31.50
2018-05-31T15:16:33.316Z,31.50
2018-05-31T15:19:00.870Z,31.40
2018-05-31T15:21:28.531Z,31.20
2018-05-31T15:23:56.097Z,30.90
2018-05-31T15:26:23.729Z,30.40
2018-05-31T15:28:51.338Z,30.30
2018-05-31T15:31:18.887Z,29.90
2018-05-31T15:33:46.514Z,29.70
2018-05-31T15:36:14.375Z,29.40
2018-05-31T15:38:41.980Z,29.20
2018-05-31T15:41:09.575Z,28.90
2018-05-31T15:43:37.272Z,28.90
2018-05-31T15:46:04.857Z,28.90
2018-05-31T15:48:32.417Z,28.90
2018-05-31T15:51:00.031Z,28.50
2018-05-31T15:53:27.648Z,28.60
2018-05-31T15:55:55.196Z,28.40
2018-05-31T15:58:22.812Z,28.50
2018-05-31T16:00:50.489Z,28.50
2018-05-31T16:03:18.057Z,28.40
2018-05-31T16:05:45.798Z,28.40
2018-05-31T16:08:13.339Z,28.20
2018-05-31T16:10:41.093Z,28.30
2018-05-31T16:13:09.600Z,28.30
2018-05-31T16:15:37.230Z,28.30
2018-05-31T16:18:05.726Z,28.30
2018-05-31T16:20:33.298Z,28.30
2018-05-31T16:23:00.885Z,28.20
2018-05-31T16:25:28.445Z,28.10
2018-05-31T16:27:56.008Z,28.10
2018-05-31T16:30:23.588Z,28.10
2018-05-31T16:32:51.168Z,28.10
2018-05-31T16:35:19.588Z,28.00
2018-05-31T16:37:47.161Z,28.00
2018-05-31T16:40:14.825Z,28.10
2018-05-31T16:42:42.410Z,28.00
2018-05-31T16:45:11.155Z,27.90
2018-05-31T16:47:39.113Z,28.00
2018-05-31T16:50:06.821Z,27.80
2018-05-31T16:52:34.461Z,27.80
2018-05-31T16:55:02.048Z,27.80
2018-05-31T16:57:30.418Z,27.90
2018-05-31T16:59:58.341Z,27.90
2018-05-31T17:02:25.935Z,27.90
2018-05-31T17:04:53.581Z,27.80
2018-05-31T17:07:21.207Z,27.80
2018-05-31T17:09:48.989Z,27.60
2018-05-31T17:12:17.531Z,27.60
2018-05-31T17:14:46.154Z,27.60
2018-05-31T17:17:15.271Z,27.60
2018-05-31T17:19:43.004Z,27.70
2018-05-31T17:22:10.651Z,27.70
2018-05-31T17:24:38.343Z,27.60
2018-05-31T17:27:06.025Z,27.70
2018-05-31T17:29:33.604Z,27.60
2018-05-31T17:32:02.138Z,27.50
2018-05-31T17:34:29.906Z,27.40
2018-05-31T17:36:58.795Z,27.50
2018-05-31T17:39:26.463Z,27.40
2018-05-31T17:42:20.372Z,27.30
2018-05-31T17:44:48.320Z,27.30
2018-05-31T17:47:16.066Z,27.20
2018-05-31T17:49:43.643Z,27.10
2018-05-31T17:52:11.313Z,27.10
2018-05-31T17:54:38.964Z,27.00
2018-05-31T17:57:06.729Z,26.90
2018-05-31T17:59:34.570Z,26.90
2018-05-31T18:02:03.380Z,26.80
2018-05-31T18:04:31.089Z,26.60
2018-05-31T18:06:58.881Z,26.60
2018-05-31T18:09:26.546Z,26.50
2018-05-31T18:11:54.177Z,26.50
2018-05-31T18:14:22.604Z,26.30
2018-05-31T18:16:50.250Z,26.30
2018-05-31T18:19:18.144Z,26.30
2018-05-31T18:21:46.031Z,26.20
2018-05-31T18:24:14.411Z,26.10
2018-05-31T18:26:42.306Z,26.10
2018-05-31T18:29:09.984Z,26.10
2018-05-31T18:31:37.544Z,25.70
2018-05-31T18:34:05.157Z,25.40
2018-05-31T18:36:32.776Z,25.20
2018-05-31T18:39:00.660Z,25.00
2018-05-31T18:41:28.228Z,25.00
2018-05-31T18:43:55.925Z,25.00
2018-05-31T18:46:24.300Z,25.00
2018-05-31T18:48:51.895Z,25.00
2018-05-31T18:51:20.264Z,25.00
2018-05-31T18:53:48.204Z,24.90
2018-05-31T18:56:17.058Z,25.00
2018-05-31T18:58:53.373Z,25.00
2018-05-31T19:01:21.016Z,25.00
2018-05-31T19:03:49.357Z,24.90
2018-05-31T19:06:17.907Z,24.90
2018-05-31T19:08:46.617Z,24.80
2018-05-31T19:11:14.898Z,24.80
2018-05-31T19:13:48.304Z,24.80
2018-05-31T19:16:15.953Z,24.80
2018-05-31T19:18:49.100Z,24.80
2018-05-31T19:21:17.199Z,24.70
2018-05-31T19:23:45.625Z,24.60
2018-05-31T19:37:46.831Z,24.30
2018-05-31T19:40:14.425Z,24.10
2018-05-31T19:42:48.351Z,24.00
2018-05-31T19:45:16.028Z,24.00
2018-05-31T19:47:43.620Z,24.00
2018-05-31T19:50:11.873Z,23.90
2018-05-31T19:52:45.283Z,23.90
2018-05-31T19:55:12.868Z,23.80
2018-05-31T19:57:46.826Z,23.80
2018-05-31T20:00:20.822Z,23.80
2018-05-31T20:02:54.177Z,23.80
2018-05-31T20:05:22.203Z,23.80
2018-05-31T20:07:49.823Z,23.80
2018-05-31T20:10:18.650Z,23.70
2018-05-31T20:12:46.426Z,23.70
2018-05-31T20:15:14.003Z,23.60
2018-05-31T20:17:42.171Z,23.60
2018-05-31T20:20:09.827Z,23.50
2018-05-31T20:22:37.463Z,23.50
2018-05-31T20:25:05.459Z,23.40
2018-05-31T20:27:33.031Z,23.40
2018-05-31T20:30:00.711Z,23.30
2018-05-31T20:32:28.351Z,23.30
2018-05-31T20:34:56.734Z,23.20
2018-05-31T20:37:25.816Z,23.20
2018-05-31T20:39:57.398Z,23.20
2018-05-31T20:42:25.007Z,23.20
2018-05-31T20:44:52.639Z,23.20
2018-05-31T20:47:20.988Z,23.10
2018-05-31T20:49:48.567Z,23.00
2018-05-31T20:52:16.888Z,23.10
2018-05-31T20:54:44.506Z,23.00
2018-05-31T20:57:12.941Z,23.00
2018-05-31T20:59:41.423Z,23.00
2018-05-31T21:02:09.010Z,23.00
2018-05-31T21:04:37.374Z,22.90
2018-05-31T21:07:05.765Z,22.90
2018-05-31T21:09:33.346Z,22.90
2018-05-31T21:12:01.804Z,22.80
2018-05-31T21:14:30.170Z,22.80
2018-05-31T21:16:59.367Z,22.70
2018-05-31T21:19:27.287Z,22.70
2018-05-31T21:21:54.862Z,22.70
2018-05-31T21:24:22.482Z,22.70
2018-05-31T21:26:50.895Z,22.70
2018-05-31T21:29:19.230Z,22.70
2018-05-31T21:31:46.844Z,22.60
2018-05-31T21:34:14.576Z,22.40
2018-05-31T21:36:42.898Z,22.20
2018-05-31T21:39:10.655Z,22.10
2018-05-31T21:41:38.221Z,22.10
2018-05-31T21:44:06.183Z,22.00
2018-05-31T21:46:34.765Z,22.00
2018-05-31T21:49:02.480Z,21.90
2018-05-31T21:51:30.810Z,21.90
2018-05-31T21:53:59.189Z,21.80
2018-05-31T21:56:26.781Z,21.80
2018-05-31T21:58:55.531Z,21.60
2018-05-31T22:01:23.368Z,21.60
2018-05-31T22:03:50.977Z,21.50
2018-05-31T22:06:18.571Z,21.50
2018-05-31T22:08:46.173Z,21.40
2018-05-31T22:11:13.795Z,21.40
2018-05-31T22:13:42.179Z,21.40
2018-05-31T22:16:09.964Z,21.40
2018-05-31T22:18:37.574Z,21.40
2018-05-31T22:21:05.885Z,21.40
2018-05-31T22:23:33.608Z,21.40
2018-05-31T22:26:01.996Z,21.20
2018-05-31T22:28:30.336Z,21.10
2018-05-31T22:30:57.959Z,21.10
2018-05-31T22:33:25.545Z,21.10
2018-05-31T22:35:53.139Z,21.10
2018-05-31T22:38:20.959Z,21.00
2018-05-31T22:40:48.551Z,21.00
2018-05-31T22:43:16.294Z,21.00
2018-05-31T22:45:43.908Z,21.00
2018-05-31T22:48:12.306Z,20.90
2018-05-31T22:50:39.900Z,20.90
2018-05-31T22:53:07.510Z,20.80
2018-05-31T22:55:35.824Z,20.70
2018-05-31T22:58:03.496Z,20.70
2018-05-31T23:00:31.091Z,20.60
2018-05-31T23:02:58.739Z,20.60
2018-05-31T23:05:26.352Z,20.50
2018-05-31T23:07:54.801Z,20.50
2018-05-31T23:10:22.483Z,20.40
2018-05-31T23:12:50.858Z,20.40
2018-05-31T23:15:19.216Z,20.40
2018-05-31T23:17:48.289Z,20.40
2018-05-31T23:20:15.896Z,20.40
2018-05-31T23:22:44.234Z,20.30
2018-05-31T23:25:11.902Z,20.40
2018-05-31T23:27:41.157Z,20.30
2018-05-31T23:30:08.787Z,20.30
2018-05-31T23:32:36.430Z,20.30
2018-05-31T23:35:04.048Z,20.30
2018-05-31T23:37:31.633Z,20.30
2018-05-31T23:39:59.236Z,20.20
2018-05-31T23:42:27.136Z,20.20
2018-05-31T23:44:54.877Z,20.20
2018-05-31T23:47:22.443Z,20.10
2018-05-31T23:49:50.015Z,20.00
2018-05-31T23:52:17.674Z,20.00
2018-05-31T23:54:45.428Z,19.80
2018-05-31T23:57:12.978Z,19.80
2018-05-31T23:59:40.606Z,19.70
